Zambezi — IR7937 — position and weather

sailwx.info

Track history (hours):
 
Tides and Currents Weather Stations Pressure Air Temp Water Temp Dewpoint Dewpoint Depression Visibility Wind Speed Wind Dir Waves Ship Positions

Zambezi

Last reported at 2017-Sep-24 18:58 UTC. Time now 2017-Sep-24 19:24 UTC.
Position N 37°56' E 023°41'.

Length 31 m.

Type: Pleasure craft. MMSI: 247093350.

Date/timePositionNaut miles runAvg speedWind from/ knotsBaromVisibWave heightAir tempDewpointWater temp
2017-Sep-24 18:58N 37°56' E 023°41'0 0.0
2017-Sep-24 18:28N 37°56' E 023°41'0 0.0
2017-Sep-24 17:58N 37°56' E 023°41'0 0.0
2017-Sep-24 17:28N 37°56' E 023°41'0 0.0
2017-Sep-24 16:58N 37°56' E 023°41'0 0.0
2017-Sep-24 16:25N 37°56' E 023°41'0 0.0
2017-Sep-24 15:58N 37°56' E 023°41'0 0.0
2017-Sep-24 15:25N 37°56' E 023°41'0 0.0
2017-Sep-24 14:58N 37°56' E 023°41'0 0.0
2017-Sep-24 14:25N 37°56' E 023°41'0 0.0
2017-Sep-24 13:58N 37°56' E 023°41'0 0.0
2017-Sep-24 13:28N 37°56' E 023°41'0 0.0
2017-Sep-24 12:58N 37°56' E 023°41'0 0.0
2017-Sep-24 12:25N 37°56' E 023°41'0 0.0
2017-Sep-24 11:58N 37°56' E 023°41'0 0.0
2017-Sep-24 11:28N 37°56' E 023°41'0 0.0
2017-Sep-24 10:58N 37°56' E 023°41'0 0.0
2017-Sep-24 10:28N 37°56' E 023°41'1 1.3
2017-Sep-24 10:00N 37°55' E 023°41'  
2017-Sep-20 08:40N 36°59' E 025°21'319.7
2017-Sep-20 08:30N 37°02' E 025°19'816.4
2017-Sep-20 08:00N 37°10' E 025°16'1 0.0
2017-Sep-18 14:57N 37°09' E 025°15'920.7
2017-Sep-18 14:30N 37°18' E 025°18'7 5.1
2017-Sep-18 13:09N 37°25' E 025°19'0 0.0
2017-Sep-18 12:54N 37°25' E 025°19'0 0.0
2017-Sep-18 12:24N 37°25' E 025°19'0 0.0
2017-Sep-18 12:00N 37°25' E 025°19'0 0.0
2017-Sep-18 11:27N 37°25' E 025°19'0 0.0
2017-Sep-18 11:00N 37°25' E 025°19'0 0.0
2017-Sep-18 10:27N 37°25' E 025°19'0 0.0
2017-Sep-18 06:51N 37°25' E 025°19'0 0.0
2017-Sep-18 06:27N 37°25' E 025°19'0 0.0
2017-Sep-18 05:48N 37°25' E 025°19'0 0.0
2017-Sep-18 05:27N 37°25' E 025°19'0 0.0
2017-Sep-18 04:30N 37°25' E 025°19'0 0.0
2017-Sep-18 03:57N 37°25' E 025°19'0 0.0
2017-Sep-18 03:27N 37°25' E 025°19'0 0.0
2017-Sep-18 02:57N 37°25' E 025°19'0 0.0
2017-Sep-18 02:30N 37°25' E 025°19'0 0.0
2017-Sep-18 02:00N 37°25' E 025°19'0 0.0
2017-Sep-18 01:30N 37°25' E 025°19'0 0.0
2017-Sep-18 00:57N 37°25' E 025°19'0 0.0
2017-Sep-18 00:30N 37°25' E 025°19'0 0.0
2017-Sep-17 23:57N 37°25' E 025°19'0 0.0
2017-Sep-17 22:24N 37°25' E 025°19'0 0.0
2017-Sep-17 22:00N 37°25' E 025°19'0 0.0
2017-Sep-17 21:27N 37°25' E 025°19'0 0.0
2017-Sep-17 21:00N 37°25' E 025°19'0 0.0
2017-Sep-17 20:30N 37°25' E 025°19'0 0.0
2017-Sep-17 19:57N 37°25' E 025°19'0 0.0
2017-Sep-17 19:21N 37°25' E 025°19'0 0.0
2017-Sep-17 18:10N 37°25' E 025°19'0 0.0
2017-Sep-17 17:58N 37°25' E 025°19'0 0.0
2017-Sep-17 17:28N 37°25' E 025°19'0 0.0
2017-Sep-17 16:58N 37°25' E 025°19'0 0.0
2017-Sep-17 16:25N 37°25' E 025°19'0 0.0
2017-Sep-17 15:58N 37°25' E 025°19'0 0.0
2017-Sep-17 15:28N 37°25' E 025°19'0 0.0
2017-Sep-17 14:55N 37°25' E 025°19'0 0.0
2017-Sep-17 14:10N 37°25' E 025°19'0 0.0
2017-Sep-17 13:58N 37°25' E 025°19'0 0.0
2017-Sep-17 12:46N 37°25' E 025°19'0 0.0
2017-Sep-17 12:19N 37°25' E 025°19'0 0.0
2017-Sep-17 11:58N 37°25' E 025°19'0 0.0
2017-Sep-17 11:25N 37°25' E 025°19'0 0.0
2017-Sep-17 10:55N 37°25' E 025°19'3 0.1
2017-Sep-16 10:02N 37°27' E 025°17'  
Track history (hours):
 
Tides and Currents Weather Stations Pressure Air Temp Water Temp Dewpoint Dewpoint Depression Visibility Wind Speed Wind Dir Waves Ship Positions

Zambezi

Last reported at 2017-Sep-24 18:58 UTC. Time now 2017-Sep-24 19:24 UTC.
Position N 37°56' E 023°41'.

Length 31 m.

Type: Pleasure craft. MMSI: 247093350.

Date/timePositionNaut miles runAvg speedWind from/ knotsBaromVisibWave heightAir tempDewpointWater temp
2017-Sep-24 18:58N 37°56' E 023°41'0 0.0
2017-Sep-24 18:28N 37°56' E 023°41'0 0.0
2017-Sep-24 17:58N 37°56' E 023°41'0 0.0
2017-Sep-24 17:28N 37°56' E 023°41'0 0.0
2017-Sep-24 16:58N 37°56' E 023°41'0 0.0
2017-Sep-24 16:25N 37°56' E 023°41'0 0.0
2017-Sep-24 15:58N 37°56' E 023°41'0 0.0
2017-Sep-24 15:25N 37°56' E 023°41'0 0.0
2017-Sep-24 14:58N 37°56' E 023°41'0 0.0
2017-Sep-24 14:25N 37°56' E 023°41'0 0.0
2017-Sep-24 13:58N 37°56' E 023°41'0 0.0
2017-Sep-24 13:28N 37°56' E 023°41'0 0.0
2017-Sep-24 12:58N 37°56' E 023°41'0 0.0
2017-Sep-24 12:25N 37°56' E 023°41'0 0.0
2017-Sep-24 11:58N 37°56' E 023°41'0 0.0
2017-Sep-24 11:28N 37°56' E 023°41'0 0.0
2017-Sep-24 10:58N 37°56' E 023°41'0 0.0
2017-Sep-24 10:28N 37°56' E 023°41'1 1.3
2017-Sep-24 10:00N 37°55' E 023°41'  
2017-Sep-20 08:40N 36°59' E 025°21'319.7
2017-Sep-20 08:30N 37°02' E 025°19'816.4
2017-Sep-20 08:00N 37°10' E 025°16'1 0.0
2017-Sep-18 14:57N 37°09' E 025°15'920.7
2017-Sep-18 14:30N 37°18' E 025°18'7 5.1
2017-Sep-18 13:09N 37°25' E 025°19'0 0.0
2017-Sep-18 12:54N 37°25' E 025°19'0 0.0
2017-Sep-18 12:24N 37°25' E 025°19'0 0.0
2017-Sep-18 12:00N 37°25' E 025°19'0 0.0
2017-Sep-18 11:27N 37°25' E 025°19'0 0.0
2017-Sep-18 11:00N 37°25' E 025°19'0 0.0
2017-Sep-18 10:27N 37°25' E 025°19'0 0.0
2017-Sep-18 06:51N 37°25' E 025°19'0 0.0
2017-Sep-18 06:27N 37°25' E 025°19'0 0.0
2017-Sep-18 05:48N 37°25' E 025°19'0 0.0
2017-Sep-18 05:27N 37°25' E 025°19'0 0.0
2017-Sep-18 04:30N 37°25' E 025°19'0 0.0
2017-Sep-18 03:57N 37°25' E 025°19'0 0.0
2017-Sep-18 03:27N 37°25' E 025°19'0 0.0
2017-Sep-18 02:57N 37°25' E 025°19'0 0.0
2017-Sep-18 02:30N 37°25' E 025°19'0 0.0
2017-Sep-18 02:00N 37°25' E 025°19'0 0.0
2017-Sep-18 01:30N 37°25' E 025°19'0 0.0
2017-Sep-18 00:57N 37°25' E 025°19'0 0.0
2017-Sep-18 00:30N 37°25' E 025°19'0 0.0
2017-Sep-17 23:57N 37°25' E 025°19'0 0.0
2017-Sep-17 22:24N 37°25' E 025°19'0 0.0
2017-Sep-17 22:00N 37°25' E 025°19'0 0.0
2017-Sep-17 21:27N 37°25' E 025°19'0 0.0
2017-Sep-17 21:00N 37°25' E 025°19'0 0.0
2017-Sep-17 20:30N 37°25' E 025°19'0 0.0
2017-Sep-17 19:57N 37°25' E 025°19'0 0.0
2017-Sep-17 19:21N 37°25' E 025°19'0 0.0
2017-Sep-17 18:10N 37°25' E 025°19'0 0.0
2017-Sep-17 17:58N 37°25' E 025°19'0 0.0
2017-Sep-17 17:28N 37°25' E 025°19'0 0.0
2017-Sep-17 16:58N 37°25' E 025°19'0 0.0
2017-Sep-17 16:25N 37°25' E 025°19'0 0.0
2017-Sep-17 15:58N 37°25' E 025°19'0 0.0
2017-Sep-17 15:28N 37°25' E 025°19'0 0.0
2017-Sep-17 14:55N 37°25' E 025°19'0 0.0
2017-Sep-17 14:10N 37°25' E 025°19'0 0.0
2017-Sep-17 13:58N 37°25' E 025°19'0 0.0
2017-Sep-17 12:46N 37°25' E 025°19'0 0.0
2017-Sep-17 12:19N 37°25' E 025°19'0 0.0
2017-Sep-17 11:58N 37°25' E 025°19'0 0.0
2017-Sep-17 11:25N 37°25' E 025°19'0 0.0
2017-Sep-17 10:55N 37°25' E 025°19'3 0.1
2017-Sep-16 10:02N 37°27' E 025°17'  

Dump ship's entire track history